createdAt,value
2018-11-06T00:02:14.238Z,100.00
2018-11-06T00:04:56.122Z,100.00
2018-11-06T00:07:25.171Z,100.00
2018-11-06T00:09:52.455Z,100.00
2018-11-06T00:12:19.531Z,100.00
2018-11-06T00:14:46.911Z,100.00
2018-11-06T00:17:14.238Z,100.00
2018-11-06T00:19:41.724Z,100.00
2018-11-06T00:22:09.029Z,100.00
2018-11-06T00:24:36.260Z,100.00
2018-11-06T00:27:03.376Z,100.00
2018-11-06T00:29:30.499Z,100.00
2018-11-06T00:31:57.679Z,100.00
2018-11-06T00:34:24.847Z,100.00
2018-11-06T00:36:51.925Z,99.80
2018-11-06T00:39:19.582Z,98.74
2018-11-06T00:41:48.861Z,98.14
2018-11-06T00:44:16.843Z,95.20
2018-11-06T00:46:43.988Z,92.80
2018-11-06T00:49:11.087Z,95.73
2018-11-06T00:51:38.848Z,98.67
2018-11-06T00:54:06.726Z,100.00
2018-11-06T00:56:33.802Z,100.00
2018-11-06T00:59:00.905Z,100.00
2018-11-06T01:01:28.103Z,100.00
2018-11-06T01:04:01.656Z,100.00
2018-11-06T01:06:29.164Z,100.00
2018-11-06T01:08:56.307Z,100.00
2018-11-06T01:11:23.439Z,100.00
2018-11-06T01:13:50.619Z,100.00
2018-11-06T01:16:17.701Z,100.00
2018-11-06T01:18:45.005Z,100.00
2018-11-06T01:21:12.069Z,100.00
2018-11-06T01:23:39.148Z,100.00
2018-11-06T01:26:07.479Z,100.00
2018-11-06T01:28:34.554Z,100.00
2018-11-06T01:31:01.700Z,100.00
2018-11-06T01:33:28.815Z,100.00
2018-11-06T01:35:55.884Z,100.00
2018-11-06T01:38:22.960Z,100.00
2018-11-06T01:40:50.125Z,100.00
2018-11-06T01:43:18.152Z,100.00
2018-11-06T01:45:45.321Z,100.00
2018-11-06T01:48:12.400Z,100.00
2018-11-06T01:50:39.483Z,100.00
2018-11-06T01:53:06.723Z,100.00
2018-11-06T01:55:33.880Z,100.00
2018-11-06T01:58:00.942Z,100.00
2018-11-06T02:00:28.475Z,100.00
2018-11-06T02:05:36.300Z,100.00
2018-11-06T02:08:03.481Z,100.00
2018-11-06T02:10:30.702Z,100.00
2018-11-06T02:12:57.871Z,100.00
2018-11-06T02:15:26.736Z,100.00
2018-11-06T02:17:53.957Z,100.00
2018-11-06T02:20:21.124Z,100.00
2018-11-06T02:22:48.292Z,100.00
2018-11-06T02:25:15.822Z,100.00
2018-11-06T02:27:43.064Z,100.00
2018-11-06T02:30:13.822Z,100.00
2018-11-06T02:32:42.752Z,100.00
2018-11-06T02:35:09.914Z,100.00
2018-11-06T02:37:37.830Z,100.00
2018-11-06T02:40:06.385Z,100.00
2018-11-06T02:42:33.482Z,100.00
2018-11-06T02:45:00.567Z,100.00
2018-11-06T02:47:27.744Z,100.00
2018-11-06T02:49:54.932Z,100.00
2018-11-06T02:52:22.003Z,100.00
2018-11-06T02:54:49.257Z,100.00
2018-11-06T02:57:16.408Z,100.00
2018-11-06T02:59:43.632Z,100.00
2018-11-06T03:02:10.756Z,100.00
2018-11-06T03:04:37.944Z,100.00
2018-11-06T03:07:05.068Z,100.00
2018-11-06T03:09:32.273Z,100.00
2018-11-06T03:11:59.504Z,100.00
2018-11-06T03:14:26.593Z,100.00
2018-11-06T03:16:53.744Z,100.00
2018-11-06T03:19:20.764Z,100.00
2018-11-06T03:21:48.471Z,100.00
2018-11-06T03:24:15.611Z,100.00
2018-11-06T03:26:42.902Z,100.00
2018-11-06T03:29:10.040Z,100.00
2018-11-06T03:31:37.109Z,100.00
2018-11-06T03:34:06.112Z,100.00
2018-11-06T03:36:33.224Z,100.00
2018-11-06T03:39:01.217Z,100.00
2018-11-06T03:41:28.315Z,100.00
2018-11-06T03:43:55.439Z,100.00
2018-11-06T03:46:22.620Z,100.00
2018-11-06T03:48:49.699Z,100.00
2018-11-06T03:51:16.838Z,100.00
2018-11-06T03:53:44.393Z,100.00
2018-11-06T03:56:11.551Z,100.00
2018-11-06T03:58:38.624Z,100.00
2018-11-06T04:01:07.098Z,100.00
2018-11-06T04:03:34.192Z,100.00
2018-11-06T04:06:01.411Z,100.00
2018-11-06T04:08:28.487Z,100.00
2018-11-06T04:10:55.643Z,100.00
2018-11-06T04:13:22.829Z,100.00
2018-11-06T04:15:49.912Z,100.00
2018-11-06T04:18:17.076Z,100.00
2018-11-06T04:20:44.151Z,100.00
2018-11-06T04:23:11.375Z,100.00
2018-11-06T04:25:38.547Z,100.00
2018-11-06T04:28:05.668Z,100.00
2018-11-06T04:30:32.761Z,100.00
2018-11-06T04:32:59.929Z,100.00
2018-11-06T04:35:27.095Z,100.00
2018-11-06T04:37:54.163Z,100.00
2018-11-06T04:40:21.255Z,100.00
2018-11-06T04:42:48.411Z,100.00
2018-11-06T04:45:15.595Z,100.00
2018-11-06T04:47:43.350Z,100.00
2018-11-06T04:50:10.806Z,100.00
2018-11-06T04:52:38.058Z,100.00
2018-11-06T04:55:09.271Z,100.00
2018-11-06T04:57:36.363Z,100.00
2018-11-06T05:00:05.071Z,100.00
2018-11-06T05:02:32.247Z,100.00
2018-11-06T05:04:59.393Z,100.00
2018-11-06T05:07:26.472Z,100.00
2018-11-06T05:09:53.661Z,100.00
2018-11-06T05:12:20.837Z,100.00
2018-11-06T05:14:47.915Z,100.00
2018-11-06T05:17:15.044Z,100.00
2018-11-06T05:19:42.198Z,100.00
2018-11-06T05:22:09.449Z,100.00
2018-11-06T05:24:36.700Z,100.00
2018-11-06T05:27:05.510Z,100.00
2018-11-06T05:29:33.965Z,100.00
2018-11-06T05:32:01.170Z,100.00
2018-11-06T05:34:28.236Z,100.00
2018-11-06T05:36:55.309Z,100.00
2018-11-06T05:39:22.413Z,100.00
2018-11-06T05:41:49.544Z,100.00
2018-11-06T05:44:16.616Z,100.00
2018-11-06T05:46:43.822Z,100.00
2018-11-06T05:49:10.912Z,100.00
2018-11-06T05:51:38.066Z,100.00
2018-11-06T05:54:05.149Z,100.00
2018-11-06T05:56:32.302Z,100.00
2018-11-06T05:58:59.371Z,100.00
2018-11-06T06:01:26.555Z,100.00
2018-11-06T06:03:53.731Z,100.00
2018-11-06T06:06:22.609Z,100.00
2018-11-06T06:08:49.810Z,100.00
2018-11-06T06:11:17.005Z,100.00
2018-11-06T06:13:44.060Z,100.00
2018-11-06T06:16:11.255Z,100.00
2018-11-06T06:18:38.425Z,100.00
2018-11-06T06:21:05.984Z,100.00
2018-11-06T06:23:33.128Z,100.00
2018-11-06T06:26:00.284Z,100.00
2018-11-06T06:28:27.505Z,100.00
2018-11-06T06:30:54.847Z,100.00
2018-11-06T06:33:22.024Z,100.00
2018-11-06T06:35:49.099Z,100.00
2018-11-06T06:38:16.175Z,100.00
2018-11-06T06:40:43.381Z,100.00
2018-11-06T06:43:10.437Z,100.00
2018-11-06T06:45:37.575Z,100.00
2018-11-06T06:48:04.801Z,100.00
2018-11-06T06:50:32.008Z,100.00
2018-11-06T06:52:59.637Z,100.00
2018-11-06T06:55:26.808Z,100.00
2018-11-06T06:57:53.847Z,100.00
2018-11-06T07:00:22.183Z,100.00
2018-11-06T07:02:49.375Z,100.00
2018-11-06T07:05:19.154Z,100.00
2018-11-06T07:07:46.356Z,100.00
2018-11-06T07:10:17.439Z,100.00
2018-11-06T07:12:46.651Z,100.00
2018-11-06T07:15:16.351Z,100.00
2018-11-06T07:17:44.819Z,100.00
2018-11-06T07:20:14.469Z,100.00
2018-11-06T07:22:41.547Z,100.00
2018-11-06T07:25:10.263Z,100.00
2018-11-06T07:27:38.450Z,100.00
2018-11-06T07:30:11.963Z,100.00
2018-11-06T07:32:40.827Z,100.00
2018-11-06T07:35:08.916Z,100.00
2018-11-06T07:37:37.288Z,100.00
2018-11-06T07:40:06.680Z,100.00
2018-11-06T07:42:33.794Z,100.00
2018-11-06T07:45:00.905Z,100.00
2018-11-06T07:47:29.662Z,100.00
2018-11-06T07:49:56.928Z,100.00
2018-11-06T07:52:24.000Z,100.00
2018-11-06T07:54:52.040Z,100.00
2018-11-06T07:57:19.167Z,100.00
2018-11-06T07:59:46.304Z,100.00
2018-11-06T08:02:13.373Z,100.00
2018-11-06T08:04:40.469Z,100.00
2018-11-06T08:07:08.608Z,100.00
2018-11-06T08:09:35.980Z,100.00
2018-11-06T08:12:03.209Z,100.00
2018-11-06T08:14:31.312Z,100.00
2018-11-06T08:16:58.653Z,100.00
2018-11-06T08:19:25.799Z,100.00
2018-11-06T08:21:52.955Z,100.00
2018-11-06T08:24:20.007Z,100.00
2018-11-06T08:26:50.837Z,100.00
2018-11-06T08:29:18.488Z,100.00
2018-11-06T08:31:46.419Z,100.00
2018-11-06T08:34:12.779Z,100.00
2018-11-06T08:36:39.915Z,100.00
2018-11-06T08:39:08.287Z,100.00
2018-11-06T08:41:35.455Z,100.00
2018-11-06T08:44:02.688Z,100.00
2018-11-06T08:46:29.802Z,100.00
2018-11-06T08:48:56.956Z,100.00
2018-11-06T08:51:24.118Z,100.00
2018-11-06T08:53:51.193Z,100.00
2018-11-06T08:56:18.272Z,100.00
2018-11-06T08:58:45.475Z,100.00
2018-11-06T09:01:12.564Z,100.00
2018-11-06T09:03:39.644Z,100.00
2018-11-06T09:06:07.677Z,100.00
2018-11-06T09:08:34.841Z,100.00
2018-11-06T09:11:02.562Z,100.00
2018-11-06T09:13:30.479Z,100.00
2018-11-06T09:15:57.926Z,100.00
2018-11-06T09:18:25.391Z,100.00
2018-11-06T09:20:53.394Z,100.00
2018-11-06T09:23:20.576Z,100.00
2018-11-06T09:25:47.756Z,100.00
2018-11-06T09:28:15.135Z,100.00
2018-11-06T09:30:42.540Z,100.00
2018-11-06T09:33:09.739Z,100.00
2018-11-06T09:35:36.911Z,100.00
2018-11-06T09:38:05.883Z,100.00
2018-11-06T09:40:35.521Z,100.00
2018-11-06T09:43:03.609Z,100.00
2018-11-06T09:45:42.748Z,100.00
2018-11-06T09:48:15.921Z,100.00
2018-11-06T09:50:43.683Z,100.00
2018-11-06T09:53:10.873Z,100.00
2018-11-06T09:55:37.975Z,100.00
2018-11-06T09:58:10.083Z,100.00
2018-11-06T10:00:37.183Z,100.00
2018-11-06T10:03:08.709Z,100.00
2018-11-06T10:05:41.043Z,98.20
2018-11-06T10:08:11.359Z,100.00
2018-11-06T10:10:42.543Z,100.00
2018-11-06T10:13:09.964Z,98.85
2018-11-06T10:15:37.297Z,95.86
2018-11-06T10:18:05.403Z,92.46
2018-11-06T10:20:32.551Z,94.15
2018-11-06T10:23:00.124Z,97.70
2018-11-06T10:25:27.822Z,96.15
2018-11-06T10:27:54.900Z,94.80
2018-11-06T10:30:22.067Z,94.26
2018-11-06T10:32:49.791Z,94.53
2018-11-06T10:35:17.088Z,94.35
2018-11-06T10:37:44.262Z,94.11
2018-11-06T10:40:19.174Z,92.36
2018-11-06T10:42:47.344Z,93.04
2018-11-06T10:45:14.489Z,94.49
2018-11-06T10:47:41.568Z,96.46
2018-11-06T10:50:09.981Z,96.59
2018-11-06T10:52:37.294Z,100.00
2018-11-06T10:55:05.517Z,97.90
2018-11-06T10:57:32.799Z,94.67
2018-11-06T11:00:00.152Z,96.96
2018-11-06T11:02:32.945Z,98.41
2018-11-06T11:05:00.062Z,96.56
2018-11-06T11:07:27.354Z,98.42
2018-11-06T11:09:54.563Z,95.02
2018-11-06T11:12:21.719Z,95.50
2018-11-06T11:14:48.791Z,93.58
2018-11-06T11:17:15.867Z,91.70
2018-11-06T11:19:42.972Z,93.50
2018-11-06T11:22:10.211Z,96.84
2018-11-06T11:24:37.320Z,95.68
2018-11-06T11:27:05.000Z,94.02
2018-11-06T11:29:32.446Z,96.04
2018-11-06T11:31:59.545Z,96.33
2018-11-06T11:34:26.628Z,98.50
2018-11-06T11:36:53.780Z,98.14
2018-11-06T11:39:20.861Z,96.83
2018-11-06T11:41:48.020Z,95.88
2018-11-06T11:44:15.099Z,94.46
2018-11-06T11:46:42.262Z,96.38
2018-11-06T11:49:09.339Z,96.09
2018-11-06T11:51:36.494Z,95.87
2018-11-06T11:54:04.204Z,96.00
2018-11-06T11:56:31.551Z,94.30
2018-11-06T11:58:58.631Z,92.89
2018-11-06T12:01:25.819Z,91.51
2018-11-06T12:03:53.051Z,91.39
2018-11-06T12:06:20.136Z,90.63
2018-11-06T12:08:47.295Z,89.30
2018-11-06T12:11:14.455Z,90.28
2018-11-06T12:13:41.523Z,88.41
2018-11-06T12:16:08.631Z,88.11
2018-11-06T12:18:36.000Z,87.67
2018-11-06T12:21:03.115Z,88.22
2018-11-06T12:23:30.216Z,84.87
2018-11-06T12:25:57.754Z,85.06
2018-11-06T12:28:25.035Z,83.14
2018-11-06T12:30:52.112Z,85.32
2018-11-06T12:33:19.728Z,85.92
2018-11-06T12:35:46.891Z,85.59
2018-11-06T12:38:21.782Z,85.01
2018-11-06T12:40:49.084Z,84.08
2018-11-06T12:43:16.166Z,82.75
2018-11-06T12:45:43.545Z,82.78
2018-11-06T12:48:10.711Z,85.60
2018-11-06T12:50:38.547Z,83.75
2018-11-06T12:53:05.725Z,81.19
2018-11-06T12:55:33.215Z,81.71
2018-11-06T12:58:00.507Z,80.93
2018-11-06T13:00:27.577Z,79.35
2018-11-06T13:02:54.644Z,76.36
2018-11-06T13:05:21.743Z,74.85
2018-11-06T13:07:48.846Z,75.00
2018-11-06T13:10:16.092Z,75.56
2018-11-06T13:12:43.924Z,74.37
2018-11-06T13:15:15.639Z,74.49
2018-11-06T13:17:42.349Z,74.93
2018-11-06T13:20:12.723Z,74.45
2018-11-06T13:22:41.632Z,74.72
2018-11-06T13:25:08.728Z,74.63
2018-11-06T13:27:37.280Z,74.71
2018-11-06T13:30:07.941Z,75.99
2018-11-06T13:32:35.396Z,74.37
2018-11-06T13:35:02.597Z,73.78
2018-11-06T13:37:30.394Z,74.85
2018-11-06T13:40:07.117Z,73.61
2018-11-06T13:42:37.723Z,75.37
2018-11-06T13:45:07.259Z,76.04
2018-11-06T13:47:34.705Z,76.67
2018-11-06T13:50:02.149Z,77.41
2018-11-06T13:52:29.317Z,76.39
2018-11-06T13:54:56.835Z,78.88
2018-11-06T13:57:25.235Z,81.50
2018-11-06T13:59:52.520Z,80.74
2018-11-06T14:02:29.020Z,80.32
2018-11-06T14:04:57.521Z,79.52
2018-11-06T14:07:24.581Z,79.33
2018-11-06T14:09:52.435Z,78.77
2018-11-06T14:12:19.520Z,78.84
2018-11-06T14:14:47.582Z,78.93
2018-11-06T14:17:15.124Z,78.79
2018-11-06T14:19:44.347Z,78.49
2018-11-06T14:22:11.521Z,79.40
2018-11-06T14:24:38.772Z,79.64
2018-11-06T14:27:05.973Z,80.36
2018-11-06T14:29:33.049Z,79.99
2018-11-06T14:32:00.164Z,80.80
2018-11-06T14:34:27.359Z,80.84
2018-11-06T14:36:54.520Z,81.31
2018-11-06T14:39:21.583Z,80.47
2018-11-06T14:41:48.747Z,80.03
2018-11-06T14:44:16.660Z,80.56
2018-11-06T14:46:43.783Z,80.05
2018-11-06T14:49:10.998Z,81.07
2018-11-06T14:51:38.070Z,80.33
2018-11-06T14:54:05.180Z,80.85
2018-11-06T14:56:32.754Z,81.50
2018-11-06T14:59:00.239Z,80.93
2018-11-06T15:01:27.500Z,81.10
2018-11-06T15:03:54.947Z,80.92
2018-11-06T15:06:22.031Z,81.86
2018-11-06T15:08:49.114Z,81.75
2018-11-06T15:11:16.189Z,81.37
2018-11-06T15:13:43.507Z,82.08
2018-11-06T15:16:10.592Z,83.28
2018-11-06T15:18:37.751Z,83.72
2018-11-06T15:21:05.070Z,85.56
2018-11-06T15:23:39.204Z,85.73
2018-11-06T15:26:06.854Z,86.37
2018-11-06T15:28:34.010Z,85.76
2018-11-06T15:31:01.148Z,87.16
2018-11-06T15:33:28.464Z,88.50
2018-11-06T15:35:55.541Z,88.59
2018-11-06T15:38:22.635Z,88.53
2018-11-06T15:40:51.020Z,89.00
2018-11-06T15:43:18.158Z,89.73
2018-11-06T15:45:45.388Z,90.38
2018-11-06T15:48:12.579Z,89.98
2018-11-06T15:50:39.727Z,90.34
2018-11-06T15:53:07.628Z,90.25
2018-11-06T15:55:35.271Z,90.78
2018-11-06T15:58:02.885Z,90.62
2018-11-06T16:00:30.327Z,91.81
2018-11-06T16:02:57.993Z,91.29
2018-11-06T16:05:25.853Z,92.21
2018-11-06T16:07:53.898Z,92.38
2018-11-06T16:10:24.372Z,92.85
2018-11-06T16:12:52.089Z,91.86
2018-11-06T16:15:19.192Z,93.12
2018-11-06T16:17:47.908Z,93.65
2018-11-06T16:20:16.476Z,92.39
2018-11-06T16:22:45.037Z,92.14
2018-11-06T16:25:14.952Z,92.19
2018-11-06T16:27:43.767Z,89.76
2018-11-06T16:30:14.655Z,91.15
2018-11-06T16:32:42.297Z,91.92
2018-11-06T16:35:11.280Z,93.25
2018-11-06T16:37:39.063Z,93.05
2018-11-06T16:40:06.735Z,92.13
2018-11-06T16:42:34.624Z,93.14
2018-11-06T16:45:02.164Z,93.04
2018-11-06T16:47:29.449Z,94.06
2018-11-06T16:49:57.499Z,93.54
2018-11-06T16:52:24.680Z,92.16
2018-11-06T16:54:51.890Z,94.29
2018-11-06T16:57:18.973Z,93.61
2018-11-06T16:59:46.104Z,92.77
2018-11-06T17:02:13.366Z,91.62
2018-11-06T17:04:40.512Z,93.73
2018-11-06T17:07:07.750Z,92.86
2018-11-06T17:09:35.099Z,91.72
2018-11-06T17:12:02.696Z,92.06
2018-11-06T17:14:29.777Z,93.13
2018-11-06T17:16:56.870Z,95.16
2018-11-06T17:19:24.047Z,96.35
2018-11-06T17:21:51.215Z,97.32
2018-11-06T17:24:18.267Z,97.65
2018-11-06T17:26:45.496Z,97.77
2018-11-06T17:29:12.647Z,98.33
2018-11-06T17:31:39.691Z,98.04
2018-11-06T17:34:06.784Z,98.73
2018-11-06T17:36:33.883Z,98.70
2018-11-06T17:39:00.949Z,98.75
2018-11-06T17:41:28.242Z,99.51
2018-11-06T17:43:55.424Z,100.00
2018-11-06T17:46:22.520Z,100.00
2018-11-06T17:48:50.096Z,99.81
2018-11-06T17:51:17.149Z,100.00
2018-11-06T17:53:44.502Z,100.00
2018-11-06T17:56:11.668Z,100.00
2018-11-06T17:58:38.823Z,100.00
2018-11-06T18:01:05.916Z,100.00
2018-11-06T18:03:33.127Z,100.00
2018-11-06T18:06:00.230Z,100.00
2018-11-06T18:08:27.815Z,100.00
2018-11-06T18:10:54.949Z,100.00
2018-11-06T18:13:23.354Z,100.00
2018-11-06T18:15:50.664Z,100.00
2018-11-06T18:18:17.811Z,100.00
2018-11-06T18:20:45.129Z,100.00
2018-11-06T18:23:12.212Z,100.00
2018-11-06T18:25:39.363Z,100.00
2018-11-06T18:28:07.065Z,100.00
2018-11-06T18:30:35.125Z,100.00
2018-11-06T18:33:02.493Z,100.00
2018-11-06T18:35:29.766Z,100.00
2018-11-06T18:37:56.878Z,100.00
2018-11-06T18:40:24.071Z,100.00
2018-11-06T18:42:51.282Z,100.00
2018-11-06T18:45:18.575Z,100.00
2018-11-06T18:47:45.826Z,100.00
2018-11-06T18:50:14.439Z,100.00
2018-11-06T18:52:43.780Z,100.00
2018-11-06T18:55:11.033Z,100.00
2018-11-06T18:57:38.620Z,100.00
2018-11-06T19:00:11.266Z,100.00
2018-11-06T19:02:38.431Z,100.00
2018-11-06T19:05:05.916Z,100.00
2018-11-06T19:07:33.041Z,100.00
2018-11-06T19:10:00.472Z,100.00
2018-11-06T19:12:28.047Z,100.00
2018-11-06T19:14:55.454Z,100.00
2018-11-06T19:17:22.619Z,100.00
2018-11-06T19:19:49.687Z,100.00
2018-11-06T19:22:16.881Z,100.00
2018-11-06T19:24:44.064Z,100.00
2018-11-06T19:27:11.938Z,100.00
2018-11-06T19:29:39.375Z,100.00
2018-11-06T19:32:06.466Z,100.00
2018-11-06T19:34:33.527Z,100.00
2018-11-06T19:37:00.724Z,100.00
2018-11-06T19:39:27.897Z,100.00
2018-11-06T19:41:56.004Z,100.00
2018-11-06T19:44:23.058Z,100.00
2018-11-06T19:46:50.158Z,100.00
2018-11-06T19:49:18.438Z,100.00
2018-11-06T19:51:45.610Z,100.00
2018-11-06T19:54:13.436Z,100.00
2018-11-06T19:56:40.991Z,100.00
2018-11-06T19:59:08.216Z,100.00
2018-11-06T20:01:35.913Z,100.00
2018-11-06T20:04:03.395Z,100.00
2018-11-06T20:06:57.416Z,100.00
2018-11-06T20:09:54.119Z,100.00
2018-11-06T20:12:23.706Z,100.00
2018-11-06T20:14:51.312Z,100.00
2018-11-06T20:17:39.872Z,100.00
2018-11-06T20:20:49.240Z,100.00
2018-11-06T20:23:54.536Z,100.00
2018-11-06T20:27:06.074Z,100.00
2018-11-06T20:30:01.046Z,100.00
2018-11-06T20:35:38.950Z,100.00
2018-11-06T20:38:06.059Z,100.00
2018-11-06T20:40:33.068Z,100.00
2018-11-06T20:43:00.329Z,100.00
2018-11-06T20:45:27.265Z,100.00
2018-11-06T20:47:54.443Z,100.00
2018-11-06T20:50:24.707Z,100.00
2018-11-06T20:52:52.320Z,100.00
2018-11-06T20:55:19.701Z,100.00
2018-11-06T20:57:46.998Z,100.00
2018-11-06T21:00:22.251Z,100.00
2018-11-06T21:02:50.380Z,98.85
2018-11-06T21:05:17.585Z,95.14
2018-11-06T21:07:46.911Z,95.21
2018-11-06T21:10:18.275Z,94.92
2018-11-06T21:12:47.027Z,95.19
2018-11-06T21:15:14.820Z,93.96
2018-11-06T21:17:43.612Z,94.16
2018-11-06T21:20:13.142Z,96.92
2018-11-06T21:22:40.431Z,98.44
2018-11-06T21:25:07.918Z,99.90
2018-11-06T21:27:35.883Z,100.00
2018-11-06T21:30:05.000Z,100.00
2018-11-06T21:32:32.149Z,100.00
2018-11-06T21:34:59.550Z,100.00
2018-11-06T21:37:26.935Z,100.00
2018-11-06T21:39:54.696Z,100.00
2018-11-06T21:42:21.785Z,100.00
2018-11-06T21:44:49.527Z,100.00
2018-11-06T21:47:17.142Z,100.00
2018-11-06T21:49:44.288Z,100.00
2018-11-06T21:52:11.357Z,100.00
2018-11-06T21:54:38.698Z,100.00
2018-11-06T21:57:05.860Z,100.00
2018-11-06T21:59:33.211Z,100.00
2018-11-06T22:02:00.274Z,100.00
2018-11-06T22:04:27.352Z,100.00
2018-11-06T22:06:54.522Z,100.00
2018-11-06T22:09:21.707Z,100.00
2018-11-06T22:11:48.963Z,100.00
2018-11-06T22:14:16.089Z,100.00
2018-11-06T22:16:43.182Z,100.00
2018-11-06T22:19:10.498Z,100.00
2018-11-06T22:21:38.023Z,100.00
2018-11-06T22:24:05.668Z,100.00
2018-11-06T22:26:33.146Z,100.00
2018-11-06T22:29:00.613Z,100.00
2018-11-06T22:31:27.715Z,100.00
2018-11-06T22:33:54.819Z,100.00
2018-11-06T22:36:22.151Z,100.00
2018-11-06T22:38:49.214Z,100.00
2018-11-06T22:41:16.317Z,100.00
2018-11-06T22:43:46.623Z,100.00
2018-11-06T22:46:13.851Z,100.00
2018-11-06T22:48:41.004Z,100.00
2018-11-06T22:51:08.145Z,100.00
2018-11-06T22:53:35.402Z,100.00
2018-11-06T22:56:04.099Z,100.00
2018-11-06T22:58:31.173Z,100.00
2018-11-06T23:01:03.992Z,100.00
2018-11-06T23:03:31.297Z,100.00
2018-11-06T23:05:58.587Z,100.00
2018-11-06T23:08:27.431Z,100.00
2018-11-06T23:10:56.778Z,100.00
2018-11-06T23:13:24.052Z,100.00
2018-11-06T23:15:51.233Z,100.00
2018-11-06T23:18:18.699Z,100.00
2018-11-06T23:20:45.796Z,100.00
2018-11-06T23:23:13.059Z,100.00
2018-11-06T23:25:40.144Z,100.00
2018-11-06T23:28:07.225Z,100.00
2018-11-06T23:30:34.923Z,100.00
2018-11-06T23:33:01.975Z,100.00
2018-11-06T23:35:29.159Z,100.00
2018-11-06T23:37:56.324Z,100.00
2018-11-06T23:40:23.411Z,100.00
2018-11-06T23:42:50.615Z,100.00
2018-11-06T23:45:17.756Z,100.00
2018-11-06T23:47:44.824Z,100.00
2018-11-06T23:50:12.398Z,100.00
2018-11-06T23:52:40.316Z,100.00
2018-11-06T23:55:09.138Z,100.00
2018-11-06T23:57:36.222Z,100.00
